createdAt,value
2023-01-11T00:04:13.732Z,100402.09
2023-01-11T00:09:16.125Z,100386.50
2023-01-11T00:14:18.001Z,100388.59
2023-01-11T00:19:19.579Z,100374.16
2023-01-11T00:24:21.139Z,100360.53
2023-01-11T00:29:22.722Z,100335.50
2023-01-11T00:34:24.397Z,100324.88
2023-01-11T00:39:25.993Z,100310.91
2023-01-11T00:44:45.675Z,100302.72
2023-01-11T00:49:47.250Z,100309.22
2023-01-11T00:54:49.012Z,100306.72
2023-01-11T00:59:50.719Z,100298.88
2023-01-11T01:04:52.340Z,100297.16
2023-01-11T01:09:53.942Z,100281.97
2023-01-11T01:14:55.551Z,100274.22
2023-01-11T01:19:57.117Z,100271.13
2023-01-11T01:24:58.660Z,100262.19
2023-01-11T01:30:00.261Z,100256.41
2023-01-11T01:35:01.929Z,100252.53
2023-01-11T01:40:04.363Z,100253.81
2023-01-11T01:45:26.460Z,100240.41
2023-01-11T01:50:31.902Z,100240.31
2023-01-11T01:55:39.415Z,100242.38
2023-01-11T02:00:43.451Z,100234.63
2023-01-11T02:05:45.537Z,100225.31
2023-01-11T02:10:47.200Z,100216.97
2023-01-11T02:16:07.470Z,100211.91
2023-01-11T02:21:22.501Z,100200.53
2023-01-11T02:26:55.447Z,100203.56
2023-01-11T02:32:32.542Z,100190.38
2023-01-11T02:37:36.940Z,100177.19
2023-01-11T02:43:02.714Z,100170.31
2023-01-11T02:48:07.071Z,100166.94
2023-01-11T02:53:24.275Z,100160.75
2023-01-11T02:58:29.976Z,100150.75
2023-01-11T03:03:32.243Z,100138.41
2023-01-11T03:08:40.535Z,100146.13
2023-01-11T03:14:22.833Z,100149.75
2023-01-11T03:19:53.088Z,100130.97
2023-01-11T03:25:12.715Z,100119.16
2023-01-11T03:30:20.669Z,100103.22
2023-01-11T03:35:32.449Z,100095.69
2023-01-11T03:40:38.130Z,100084.47
2023-01-11T03:45:53.369Z,100083.50
2023-01-11T03:50:56.443Z,100080.84
2023-01-11T03:55:59.076Z,100077.53
2023-01-11T04:01:00.832Z,100066.06
2023-01-11T04:06:03.002Z,100068.47
2023-01-11T04:11:05.054Z,100059.78
2023-01-11T04:16:07.027Z,100055.41
2023-01-11T04:21:08.729Z,100057.09
2023-01-11T04:26:10.387Z,100053.47
2023-01-11T04:31:11.982Z,100046.81
2023-01-11T04:36:13.664Z,100050.75
2023-01-11T04:41:33.967Z,100044.59
2023-01-11T04:46:35.556Z,100033.69
2023-01-11T04:51:37.152Z,100024.09
2023-01-11T04:56:38.733Z,100007.41
2023-01-11T05:01:40.373Z,100003.19
2023-01-11T05:06:41.988Z,100019.78
2023-01-11T05:11:43.607Z,100018.22
2023-01-11T05:16:45.444Z,100013.63
2023-01-11T05:21:47.123Z,100008.63
2023-01-11T05:26:50.227Z,100002.75
2023-01-11T05:31:51.912Z,100004.44
2023-01-11T05:36:54.691Z,99999.84
2023-01-11T05:41:56.303Z,99997.84
2023-01-11T05:46:58.362Z,99993.25
2023-01-11T05:52:00.035Z,99994.09
2023-01-11T05:57:01.695Z,99991.31
2023-01-11T06:02:03.320Z,99982.75
2023-01-11T06:07:04.978Z,99980.34
2023-01-11T06:12:06.860Z,99985.41
2023-01-11T06:17:08.507Z,99976.44
2023-01-11T06:22:10.144Z,99984.16
2023-01-11T06:27:11.773Z,99975.63
2023-01-11T06:32:13.418Z,99978.44
2023-01-11T06:37:15.008Z,99979.00
2023-01-11T06:42:16.596Z,99976.78
2023-01-11T06:47:18.277Z,99957.19
2023-01-11T06:52:19.907Z,99949.19
2023-01-11T06:57:21.476Z,99947.22
2023-01-11T07:02:23.064Z,99962.50
2023-01-11T07:07:24.629Z,99972.31
2023-01-11T07:12:26.464Z,99971.16
2023-01-11T07:17:28.086Z,99980.69
2023-01-11T07:22:30.138Z,99980.72
2023-01-11T07:27:32.011Z,99987.16
2023-01-11T07:32:33.638Z,99964.47
2023-01-11T07:37:37.371Z,99972.03
2023-01-11T07:42:57.499Z,99962.22
2023-01-11T07:47:59.093Z,99956.34
2023-01-11T07:53:00.661Z,99954.38
2023-01-11T07:58:03.170Z,99968.41
2023-01-11T08:03:04.954Z,99966.16
2023-01-11T08:08:07.157Z,99952.75
2023-01-11T08:13:45.149Z,99965.50
2023-01-11T08:18:46.890Z,99978.25
2023-01-11T08:23:48.513Z,99970.53
2023-01-11T08:28:50.172Z,99964.25
2023-01-11T08:33:51.796Z,99951.47
2023-01-11T08:38:55.359Z,99955.41
2023-01-11T08:43:57.015Z,99958.91
2023-01-11T08:48:58.749Z,99941.25
2023-01-11T08:54:00.357Z,99951.06
2023-01-11T08:59:02.521Z,99939.97
2023-01-11T09:04:15.532Z,99941.53
2023-01-11T09:09:24.942Z,99929.34
2023-01-11T09:14:27.646Z,99934.38
2023-01-11T09:19:29.366Z,99927.06
2023-01-11T09:24:31.119Z,99934.78
2023-01-11T09:29:34.962Z,99925.81
2023-01-11T09:34:38.304Z,99933.91
2023-01-11T09:39:41.363Z,99934.63
2023-01-11T09:44:54.323Z,99920.72
2023-01-11T09:49:58.843Z,99921.97
2023-01-11T09:55:01.380Z,99904.44
2023-01-11T10:00:06.437Z,99892.47
2023-01-11T10:05:45.389Z,99888.38
2023-01-11T10:18:30.454Z,99885.44
2023-01-11T10:22:16.647Z,99876.34
2023-01-11T10:27:26.116Z,99865.34
2023-01-11T10:33:00.358Z,99870.56
2023-01-11T10:38:23.265Z,99851.34
2023-01-11T10:43:25.824Z,99851.84
2023-01-11T10:48:33.261Z,99850.72
2023-01-11T10:53:54.909Z,99852.38
2023-01-11T10:59:21.955Z,99849.81
2023-01-11T11:04:26.739Z,99854.31
2023-01-11T11:09:37.368Z,99847.53
2023-01-11T11:14:46.119Z,99843.00
2023-01-11T11:19:47.849Z,99830.63
2023-01-11T11:25:00.850Z,99832.31
2023-01-11T11:30:03.327Z,99825.16
2023-01-11T11:35:07.817Z,99825.81
2023-01-11T11:40:29.539Z,99811.88
2023-01-11T11:45:31.179Z,99820.22
2023-01-11T11:50:44.147Z,99813.13
2023-01-11T11:55:46.573Z,99799.00
2023-01-11T12:00:49.243Z,99784.13
2023-01-11T12:05:51.690Z,99786.94
2023-01-11T12:10:58.677Z,99780.25
2023-01-11T12:16:02.987Z,99759.41
2023-01-11T12:21:21.271Z,99766.97
2023-01-11T12:26:54.041Z,99757.28
2023-01-11T12:32:02.129Z,99744.47
2023-01-11T12:37:15.788Z,99755.38
2023-01-11T12:42:26.187Z,99747.38
2023-01-11T12:47:51.918Z,99745.38
2023-01-11T12:53:18.177Z,99728.50
2023-01-11T12:58:31.932Z,99728.00
2023-01-11T13:04:16.607Z,99728.00
2023-01-11T13:09:53.604Z,99717.78
2023-01-11T13:15:24.490Z,99720.31
2023-01-11T13:20:59.913Z,99720.59
2023-01-11T13:26:24.162Z,99722.59
2023-01-11T13:31:26.103Z,99723.25
2023-01-11T13:36:33.406Z,99717.41
2023-01-11T13:41:45.248Z,99723.97
2023-01-11T13:46:55.251Z,99732.44
2023-01-11T13:52:08.487Z,99728.78
2023-01-11T13:57:15.941Z,99740.97
2023-01-11T14:02:31.115Z,99731.97
2023-01-11T14:07:49.009Z,99731.97
2023-01-11T14:13:02.429Z,99736.59
2023-01-11T14:18:10.126Z,99739.66
2023-01-11T14:23:20.707Z,99744.16
2023-01-11T14:28:44.670Z,99751.69
2023-01-11T14:34:07.462Z,99746.69
2023-01-11T14:39:34.055Z,99746.22
2023-01-11T14:45:08.180Z,99742.69
2023-01-11T14:50:14.729Z,99739.88
2023-01-11T14:55:23.178Z,99742.94
2023-01-11T15:00:24.795Z,99744.56
2023-01-11T15:05:35.251Z,99743.94
2023-01-11T15:10:36.741Z,99751.78
2023-01-11T15:15:57.013Z,99747.00
2023-01-11T15:21:05.279Z,99757.34
2023-01-11T15:26:09.333Z,99752.56
2023-01-11T15:31:35.419Z,99765.59
2023-01-11T15:36:55.736Z,99771.69
2023-01-11T15:42:48.366Z,99770.31
2023-01-11T15:48:07.982Z,99768.72
2023-01-11T15:53:37.208Z,99770.66
2023-01-11T15:58:38.703Z,99772.09
2023-01-11T16:03:44.852Z,99775.88
2023-01-11T16:08:55.312Z,99778.66
2023-01-11T16:14:13.278Z,99780.53
2023-01-11T16:19:20.406Z,99782.09
2023-01-11T16:24:26.751Z,99798.38
2023-01-11T16:29:36.258Z,99791.59
2023-01-11T16:34:41.071Z,99791.06
2023-01-11T16:39:42.858Z,99800.06
2023-01-11T16:44:55.929Z,99813.44
2023-01-11T16:50:19.532Z,99820.44
2023-01-11T16:55:30.850Z,99813.13
2023-01-11T17:00:38.370Z,99826.00
2023-01-11T17:05:40.036Z,99828.31
2023-01-11T17:10:42.291Z,99830.22
2023-01-11T17:15:54.490Z,99835.84
2023-01-11T17:20:56.616Z,99843.09
2023-01-11T17:25:58.336Z,99857.59
2023-01-11T17:31:01.093Z,99861.25
2023-01-11T17:36:03.145Z,99856.28
2023-01-11T17:41:26.806Z,99864.31
2023-01-11T17:46:28.424Z,99876.75
2023-01-11T17:51:31.789Z,99880.03
2023-01-11T17:56:34.959Z,99888.75
2023-01-11T18:01:36.812Z,99900.28
2023-01-11T18:06:40.709Z,99900.47
2023-01-11T18:11:42.592Z,99894.47
2023-01-11T18:16:59.152Z,99895.06
2023-01-11T18:22:01.282Z,99889.03
2023-01-11T18:27:14.335Z,99882.69
2023-01-11T18:32:16.126Z,99905.22
2023-01-11T18:37:18.092Z,99917.91
2023-01-11T18:42:23.015Z,99914.63
2023-01-11T18:47:27.079Z,99925.84
2023-01-11T18:52:29.462Z,99931.09
2023-01-11T18:57:31.040Z,99931.94
2023-01-11T19:02:43.488Z,99935.00
2023-01-11T19:07:45.165Z,99943.16
2023-01-11T19:12:47.183Z,99937.66
2023-01-11T19:17:49.092Z,99947.13
2023-01-11T19:22:50.718Z,99959.66
2023-01-11T19:27:54.793Z,99963.72
2023-01-11T19:32:56.508Z,99969.38
2023-01-11T19:37:58.115Z,99977.63
2023-01-11T19:42:59.746Z,99992.81
2023-01-11T19:48:01.484Z,99992.13
2023-01-11T19:53:03.099Z,100002.66
2023-01-11T19:58:05.307Z,100017.78
2023-01-11T20:03:07.055Z,100029.16
2023-01-11T20:08:08.701Z,100019.13
2023-01-11T20:13:10.364Z,100034.97
2023-01-11T20:18:11.921Z,100040.81
2023-01-11T20:23:13.531Z,100053.53
2023-01-11T20:28:15.431Z,100054.00
2023-01-11T20:33:17.043Z,100057.78
2023-01-11T20:38:19.611Z,100065.41
2023-01-11T20:43:21.173Z,100068.09
2023-01-11T20:48:22.825Z,100066.97
2023-01-11T20:53:24.406Z,100076.72
2023-01-11T20:58:25.975Z,100077.00
2023-01-11T21:03:27.559Z,100077.69
2023-01-11T21:08:29.221Z,100079.00
2023-01-11T21:13:30.767Z,100087.47
2023-01-11T21:18:32.403Z,100097.56
2023-01-11T21:23:33.966Z,100094.50
2023-01-11T21:28:35.549Z,100090.53
2023-01-11T21:33:39.269Z,100088.59
2023-01-11T21:38:41.186Z,100103.91
2023-01-11T21:43:43.273Z,100099.06
2023-01-11T21:48:44.923Z,100106.34
2023-01-11T21:53:46.587Z,100115.19
2023-01-11T21:58:49.631Z,100114.53
2023-01-11T22:03:51.361Z,100126.88
2023-01-11T22:08:53.092Z,100119.56
2023-01-11T22:13:54.657Z,100120.72
2023-01-11T22:18:56.904Z,100131.69
2023-01-11T22:23:59.287Z,100122.09
2023-01-11T22:29:14.758Z,100131.69
2023-01-11T22:34:17.527Z,100137.41
2023-01-11T22:39:19.685Z,100140.19
2023-01-11T22:44:21.457Z,100144.41
2023-01-11T22:49:23.085Z,100148.50
2023-01-11T22:54:25.252Z,100150.03
2023-01-11T22:59:27.440Z,100148.91
2023-01-11T23:04:29.060Z,100145.53
2023-01-11T23:09:30.802Z,100139.38
2023-01-11T23:14:33.026Z,100148.94
2023-01-11T23:19:37.053Z,100148.22
2023-01-11T23:24:39.004Z,100138.25
2023-01-11T23:29:40.619Z,100137.72
2023-01-11T23:34:42.188Z,100150.63
2023-01-11T23:39:43.742Z,100156.53
2023-01-11T23:44:46.971Z,100159.78
2023-01-11T23:49:49.710Z,100146.44
2023-01-11T23:54:51.461Z,100153.25
2023-01-11T23:59:53.080Z,100158.47
